Time;durP1;ratioP1;P1;durP2;ratioP2;P2;SDS_P1;SDS_P2;PMS_P1;PMS_P2;Temp;Humidity;BMP_temperature;BMP_pressure;BME280_temperature;BME280_humidity;BME280_pressure;Samples;Min_cycle;Max_cycle;Signal;HPM_P1;HPM_P2
2022/03/29 05:05:17;;;;;;;;;;;;;;;1.76;94.56;99195.97;5732270;23;19995;-85
2022/03/29 05:07:43;;;;;;;;;;;;;;;1.84;97.63;99203.69;4933536;29;19926;-85
2022/03/29 05:10:09;;;;;;;;;;;;;;;1.94;99.64;99193.94;4935115;29;19930;-85
2022/03/29 05:12:39;;;;;;;;;;;;;;;2.00;100.00;99194.69;4942824;29;19919;-88
2022/03/29 05:15:04;;;;;;;;;;;;;;;2.09;100.00;99192.81;4929484;29;19918;-85
2022/03/29 05:17:31;;;;;;;;;;;;;;;2.14;100.00;99185.75;4934837;29;19978;-89
2022/03/29 05:19:56;;;;;;;;;;;;;;;2.11;100.00;99185.81;4933554;29;19919;-85
2022/03/29 05:22:21;;;;;;;;;;;;;;;2.10;100.00;99178.84;4936124;29;19925;-87
2022/03/29 05:24:46;;;;;;;;;;;;;;;2.12;100.00;99185.78;4933965;29;19918;-85
2022/03/29 05:27:12;;;;;;;;;;;;;;;2.04;100.00;99186.81;4936097;29;19919;-87
2022/03/29 05:29:37;;;;;;;;;;;;;;;2.11;100.00;99193.66;4935869;29;19927;-90
2022/03/29 05:32:03;;;;;;;;;;;;;;;2.10;100.00;99190.16;4935943;29;20440;-86
2022/03/29 05:34:28;;;;;;;;;;;;;;;2.08;100.00;99184.09;4933119;29;20450;-86
2022/03/29 05:36:53;;;;;;;;;;;;;;;2.10;100.00;99189.31;4935728;29;19974;-87
2022/03/29 05:39:19;;;;;;;;;;;;;;;2.13;100.00;99194.47;4934465;29;20370;-86
2022/03/29 05:41:45;;;;;;;;;;;;;;;2.19;100.00;99194.38;4935539;29;20290;-87
2022/03/29 05:44:10;;;;;;;;;;;;;;;2.08;100.00;99188.47;4934839;29;19965;-88
2022/03/29 05:49:22;;;;;;;;;;;;;;;2.19;100.00;99194.38;4934219;29;19978;-87
2022/03/29 05:51:49;;;;;;;;;;;;;;;2.15;100.00;99192.69;4935382;29;19927;-87
2022/03/29 05:54:15;;;;;;;;;;;;;;;2.15;100.00;99197.91;4935468;29;19922;-89
2022/03/29 05:56:40;;;;;;;;;;;;;;;2.21;100.00;99197.81;4935320;29;19919;-87
2022/03/29 05:59:08;;;;;;;;;;;;;;;2.22;100.00;99193.44;4935418;29;19923;-87
2022/03/29 06:01:34;;;;;;;;;;;;;;;2.31;100.00;99188.03;4934985;29;20282;-86
2022/03/29 06:03:59;;;;;;;;;;;;;;;2.50;100.00;99180.72;4935145;29;19919;-87
2022/03/29 06:06:24;;;;;;;;;;;;;;;2.50;100.00;99178.09;4934104;29;20310;-86
2022/03/29 06:08:49;;;;;;;;;;;;;;;2.48;100.00;99185.13;4933847;29;19923;-86
2022/03/29 06:11:15;;;;;;;;;;;;;;;2.47;100.00;99179.03;4935344;29;19923;-86
2022/03/29 06:13:40;;;;;;;;;;;;;;;2.50;100.00;99178.09;4933706;29;19918;-86
2022/03/29 06:16:05;;;;;;;;;;;;;;;2.54;100.00;99182.38;4933652;29;19923;-86
2022/03/29 06:18:31;;;;;;;;;;;;;;;2.48;100.00;99182.50;4933721;29;20373;-86
2022/03/29 06:20:56;;;;;;;;;;;;;;;2.50;100.00;99178.09;4932349;29;20359;-86
2022/03/29 06:23:22;;;;;;;;;;;;;;;2.51;100.00;99182.44;4933752;29;19926;-87
2022/03/29 06:25:48;;;;;;;;;;;;;;;2.54;100.00;99179.78;4933537;29;19926;-86
2022/03/29 06:28:14;;;;;;;;;;;;;;;2.59;99.38;99185.78;4935002;29;19946;-86
2022/03/29 06:30:39;;;;;;;;;;;;;;;2.57;98.59;99182.34;4934655;29;20018;-86
2022/03/29 06:33:04;;;;;;;;;;;;;;;2.59;97.92;99187.53;4934754;29;19927;-86
2022/03/29 06:35:31;;;;;;;;;;;;;;;2.57;97.50;99187.56;4933332;29;19919;-86
2022/03/29 06:37:58;;;;;;;;;;;;;;;2.58;96.82;99184.03;4934875;29;19927;-85
2022/03/29 06:40:25;;;;;;;;;;;;;;;2.59;96.01;99174.47;4935083;29;19961;-85
2022/03/29 06:42:50;;;;;;;;;;;;;;;2.56;95.51;99179.75;4934683;29;19922;-86
2022/03/29 06:45:15;;;;;;;;;;;;;;;2.58;94.98;99170.09;4934732;29;20421;-86
2022/03/29 06:47:41;;;;;;;;;;;;;;;2.57;94.42;99168.38;4934652;29;19930;-86
2022/03/29 06:50:08;;;;;;;;;;;;;;;2.60;93.70;99171.81;4933541;29;19926;-86
2022/03/29 06:52:34;;;;;;;;;;;;;;;2.60;93.04;99163.97;4934616;29;19941;-86
2022/03/29 06:54:59;;;;;;;;;;;;;;;2.57;92.55;99163.13;4934630;29;19929;-86
2022/03/29 06:57:25;;;;;;;;;;;;;;;2.63;92.01;99155.16;4934684;29;19918;-87
2022/03/29 06:59:50;;;;;;;;;;;;;;;2.65;91.63;99156.00;4933278;29;19923;-87
2022/03/29 07:02:15;;;;;;;;;;;;;;;2.60;91.23;99166.56;4933522;29;19922;-87
2022/03/29 07:04:41;;;;;;;;;;;;;;;2.62;90.74;99162.16;4933268;29;19970;-86
2022/03/29 07:07:06;;;;;;;;;;;;;;;2.62;90.44;99156.94;4933661;29;19923;-87
2022/03/29 07:12:15;;;;;;;;;;;;;;;2.63;89.84;99169.13;4934708;29;19985;-88
2022/03/29 07:14:40;;;;;;;;;;;;;;;2.65;89.46;99162.09;4932876;29;20794;-87
2022/03/29 07:17:10;;;;;;;;;;;;;;;2.62;89.21;99151.69;4936729;29;19922;-87
2022/03/29 07:19:35;;;;;;;;;;;;;;;2.65;88.77;99151.63;4937100;29;19922;-88
2022/03/29 07:22:00;;;;;;;;;;;;;;;2.65;88.65;99150.75;4938116;29;19950;-87
2022/03/29 07:24:25;;;;;;;;;;;;;;;2.68;88.34;99156.81;4938317;29;19925;-87
2022/03/29 07:26:51;;;;;;;;;;;;;;;2.66;87.97;99162.97;4938117;29;19919;-87
2022/03/29 07:29:17;;;;;;;;;;;;;;;2.66;87.49;99157.72;4938085;29;19919;-87
2022/03/29 07:31:43;;;;;;;;;;;;;;;2.64;87.27;99155.13;4937950;29;19919;-87
2022/03/29 07:52:20;;;;;;;;;;;;;;;2.74;85.66;99153.19;5128368;23;19927;-86
2022/03/29 07:54:45;;;;;;;;;;;;;;;2.75;85.95;99146.22;4936791;29;20399;-86
2022/03/29 07:57:10;;;;;;;;;;;;;;;2.76;86.21;99137.47;4936135;29;19946;-85
2022/03/29 07:59:37;;;;;;;;;;;;;;;2.77;86.39;99133.97;4936644;29;19927;-86
2022/03/29 08:02:02;;;;;;;;;;;;;;;2.79;86.58;99142.63;4936787;29;19930;-87
2022/03/29 08:04:28;;;;;;;;;;;;;;;2.81;86.73;99135.59;4936094;29;20283;-86
2022/03/29 08:06:53;;;;;;;;;;;;;;;2.82;86.81;99134.72;4935733;29;19923;-86
2022/03/29 08:09:19;;;;;;;;;;;;;;;2.84;86.79;99130.31;4936496;29;19923;-87
2022/03/29 08:11:44;;;;;;;;;;;;;;;2.83;86.83;99133.84;4936412;29;19919;-85
2022/03/29 08:14:12;;;;;;;;;;;;;;;2.85;86.96;99126.81;4936887;29;19923;-87
2022/03/29 08:16:37;;;;;;;;;;;;;;;2.89;87.06;99125.84;4936470;29;19919;-88
2022/03/29 08:19:03;;;;;;;;;;;;;;;2.88;86.80;99129.34;4935959;29;19926;-86
2022/03/29 08:24:12;;;;;;;;;;;;;;;2.93;86.50;99129.25;4936237;29;19929;-87
2022/03/29 08:26:37;;;;;;;;;;;;;;;2.93;86.48;99130.09;4934937;29;19922;-86
2022/03/29 08:29:03;;;;;;;;;;;;;;;2.93;86.43;99134.50;4935413;29;19966;-87
2022/03/29 08:31:28;;;;;;;;;;;;;;;2.96;86.46;99127.41;4935285;29;19918;-87
2022/03/29 08:33:53;;;;;;;;;;;;;;;2.96;86.32;99127.41;4936251;29;19927;-86
2022/03/29 08:36:18;;;;;;;;;;;;;;;2.98;86.06;99125.63;4935378;29;20346;-87
2022/03/29 08:38:44;;;;;;;;;;;;;;;2.99;85.76;99116.03;4934173;29;20805;-88
2022/03/29 08:41:09;;;;;;;;;;;;;;;3.00;85.35;99121.22;4936247;29;19919;-87
2022/03/29 08:43:35;;;;;;;;;;;;;;;3.05;85.30;99119.38;4935242;29;19923;-86
2022/03/29 08:46:01;;;;;;;;;;;;;;;3.08;85.01;99115.84;4936365;29;20343;-87
2022/03/29 08:48:27;;;;;;;;;;;;;;;3.07;84.75;99106.25;4936838;29;20371;-87
2022/03/29 08:50:53;;;;;;;;;;;;;;;3.09;84.59;99105.31;4927233;29;19926;-87
2022/03/29 08:53:22;;;;;;;;;;;;;;;3.17;84.05;99112.97;4935482;29;19929;-85
2022/03/29 08:55:48;;;;;;;;;;;;;;;3.17;83.97;99114.75;4933092;29;19934;-86
2022/03/29 08:58:14;;;;;;;;;;;;;;;3.18;83.91;99121.72;4936230;29;19923;-87
2022/03/29 09:00:41;;;;;;;;;;;;;;;3.19;84.07;99115.56;4935424;29;19919;-87
2022/03/29 09:03:07;;;;;;;;;;;;;;;3.20;84.04;99118.13;4934522;29;19922;-87
2022/03/29 09:05:32;;;;;;;;;;;;;;;3.21;83.92;99112.03;4933812;29;20013;-87
2022/03/29 09:08:00;;;;;;;;;;;;;;;3.21;83.80;99109.41;4935770;29;20058;-87
2022/03/29 09:10:41;;;;;;;;;;;;;;;3.24;83.87;99104.09;4941492;29;20352;-86
2022/03/29 09:13:15;;;;;;;;;;;;;;;3.26;83.45;99097.06;4934193;29;20393;-87
2022/03/29 09:15:40;;;;;;;;;;;;;;;3.24;83.33;99093.63;4925880;29;20698;-87
2022/03/29 09:18:08;;;;;;;;;;;;;;;3.26;83.25;99093.59;4934316;29;19919;-86
2022/03/29 09:20:34;;;;;;;;;;;;;;;3.28;83.17;99089.16;4934401;29;19971;-88
2022/03/29 09:22:59;;;;;;;;;;;;;;;3.28;83.00;99090.00;4935119;29;19989;-85
2022/03/29 09:25:33;;;;;;;;;;;;;;;3.30;82.94;99083.88;4935773;29;19922;-86
2022/03/29 09:28:00;;;;;;;;;;;;;;;3.28;82.97;99084.78;4935418;29;19926;-88
2022/03/29 09:30:27;;;;;;;;;;;;;;;3.32;82.80;99082.09;4935443;29;19919;-85
2022/03/29 09:33:02;;;;;;;;;;;;;;;3.34;83.13;99086.41;4934460;29;19931;-87
2022/03/29 09:35:28;;;;;;;;;;;;;;;3.37;83.28;99088.94;4933642;29;19918;-86
2022/03/29 09:37:54;;;;;;;;;;;;;;;3.36;83.06;99087.22;4934164;29;19930;-86
2022/03/29 09:40:19;;;;;;;;;;;;;;;3.37;83.04;99078.47;4934021;29;19923;-89
2022/03/29 09:43:04;;;;;;;;;;;;;;;3.41;83.24;99085.31;4935547;29;19919;-85
2022/03/29 09:45:47;;;;;;;;;;;;;;;3.44;83.06;99073.94;4935336;29;20555;-86
2022/03/29 09:48:22;;;;;;;;;;;;;;;3.42;83.05;99065.25;4935583;29;19977;-87
2022/03/29 09:50:49;;;;;;;;;;;;;;;3.45;83.04;99066.03;4933586;29;19966;-87
2022/03/29 09:53:32;;;;;;;;;;;;;;;3.49;83.22;99052.88;4934847;29;19946;-87
2022/03/29 09:55:59;;;;;;;;;;;;;;;3.51;83.30;99048.44;4934720;29;19923;-88
2022/03/29 09:58:24;;;;;;;;;;;;;;;3.54;83.18;99043.13;4934187;29;19926;-87
2022/03/29 10:00:49;;;;;;;;;;;;;;;3.53;82.99;99028.31;4935015;29;19926;-86
2022/03/29 10:03:17;;;;;;;;;;;;;;;3.56;83.10;99031.72;4934664;29;19922;-88
2022/03/29 10:05:42;;;;;;;;;;;;;;;3.57;83.20;99024.69;4932670;29;20414;-86
2022/03/29 10:10:52;;;;;;;;;;;;;;;3.61;83.45;99018.50;4934736;29;20358;-85
2022/03/29 10:13:23;;;;;;;;;;;;;;;3.63;83.43;99017.53;4934166;29;20013;-86
2022/03/29 10:15:53;;;;;;;;;;;;;;;3.65;83.44;99012.25;4934390;29;19951;-86
2022/03/29 10:18:21;;;;;;;;;;;;;;;3.68;83.14;99009.56;4933317;29;20510;-87
2022/03/29 10:20:47;;;;;;;;;;;;;;;3.69;83.15;99006.03;4933252;29;19929;-87
2022/03/29 10:23:18;;;;;;;;;;;;;;;3.73;83.29;99001.56;4934751;29;19926;-87
2022/03/29 10:25:43;;;;;;;;;;;;;;;3.70;83.14;98989.44;4934184;29;20540;-86
2022/03/29 10:28:09;;;;;;;;;;;;;;;3.76;83.02;98991.00;4934588;29;19927;-88
2022/03/29 10:30:35;;;;;;;;;;;;;;;3.76;82.84;98984.00;4934871;29;19966;-87
2022/03/29 10:33:19;;;;;;;;;;;;;;;3.78;82.43;98978.72;4933533;29;19922;-87
2022/03/29 10:35:59;;;;;;;;;;;;;;;3.82;82.65;98973.34;4932416;29;20017;-86
2022/03/29 10:38:42;;;;;;;;;;;;;;;3.85;82.90;98959.31;4933306;29;19986;-87
2022/03/29 10:41:28;;;;;;;;;;;;;;;3.87;82.86;98957.50;4933616;29;19934;-87
2022/03/29 10:44:06;;;;;;;;;;;;;;;3.87;82.97;98949.63;4933737;29;20286;-87
2022/03/29 10:46:39;;;;;;;;;;;;;;;3.91;83.04;98953.88;4932946;29;19923;-87
2022/03/29 10:49:20;;;;;;;;;;;;;;;3.94;83.38;98950.31;4933925;29;19922;-87
2022/03/29 10:51:47;;;;;;;;;;;;;;;3.96;83.27;98951.13;4931121;29;20346;-87
2022/03/29 10:54:27;;;;;;;;;;;;;;;3.98;83.47;98952.78;4934629;29;20002;-84
2022/03/29 10:56:59;;;;;;;;;;;;;;;4.00;83.54;98958.00;4932697;29;19923;-85
2022/03/29 10:59:24;;;;;;;;;;;;;;;4.01;83.87;98946.63;4934121;29;19929;-86
2022/03/29 11:02:22;;;;;;;;;;;;;;;4.02;84.11;98940.47;4933461;29;19915;-88
2022/03/29 11:05:04;;;;;;;;;;;;;;;4.04;84.20;98930.78;4921147;29;20021;-87
2022/03/29 11:07:30;;;;;;;;;;;;;;;4.05;84.10;98934.25;4932612;29;19925;-85
2022/03/29 11:10:09;;;;;;;;;;;;;;;4.07;84.06;98928.09;4933782;29;19923;-86
2022/03/29 11:12:35;;;;;;;;;;;;;;;4.08;84.05;98928.94;4933799;29;19918;-88
2022/03/29 11:15:00;;;;;;;;;;;;;;;4.09;84.02;98931.50;4933285;29;19923;-88
2022/03/29 11:17:29;;;;;;;;;;;;;;;4.12;84.14;98920.09;4934587;29;19991;-90
2022/03/29 11:19:56;;;;;;;;;;;;;;;4.16;84.29;98921.69;4933202;29;19926;-86
2022/03/29 11:22:21;;;;;;;;;;;;;;;4.13;84.39;98914.78;4932491;29;19922;-86
2022/03/29 11:24:48;;;;;;;;;;;;;;;4.16;84.68;98914.69;4933483;29;20014;-88
2022/03/29 11:27:19;;;;;;;;;;;;;;;4.18;84.82;98910.25;4933449;29;19977;-87
2022/03/29 11:29:45;;;;;;;;;;;;;;;4.19;84.96;98906.72;4927275;29;19922;-85
2022/03/29 11:32:14;;;;;;;;;;;;;;;4.22;85.15;98904.91;4933214;29;20442;-89
2022/03/29 11:34:40;;;;;;;;;;;;;;;4.25;85.33;98900.44;4933375;29;19930;-86
2022/03/29 11:37:06;;;;;;;;;;;;;;;4.26;85.52;98901.28;4932163;29;19982;-87
2022/03/29 11:39:31;;;;;;;;;;;;;;;4.30;85.59;98902.91;4929774;29;19923;-83
2022/03/29 11:41:56;;;;;;;;;;;;;;;4.32;85.67;98899.34;4934087;29;19926;-84
2022/03/29 11:44:23;;;;;;;;;;;;;;;4.33;85.78;98897.56;4932202;29;19922;-88
2022/03/29 11:46:51;;;;;;;;;;;;;;;4.36;85.66;98897.47;4932821;29;19926;-86
2022/03/29 11:49:17;;;;;;;;;;;;;;;4.38;85.68;98898.28;4933994;29;20291;-84
2022/03/29 11:51:42;;;;;;;;;;;;;;;4.41;85.74;98890.31;4933150;29;19980;-83
2022/03/29 11:54:08;;;;;;;;;;;;;;;4.43;85.79;98883.25;4931990;29;19953;-86
2022/03/29 11:56:38;;;;;;;;;;;;;;;4.44;85.96;98878.88;4934045;29;19919;-89
2022/03/29 11:59:04;;;;;;;;;;;;;;;4.49;86.40;98871.72;4933575;29;19929;-84
2022/03/29 12:01:31;;;;;;;;;;;;;;;4.52;86.52;98866.38;4931524;29;19933;-84
2022/03/29 12:04:02;;;;;;;;;;;;;;;4.51;86.67;98865.47;4935435;29;19919;-84
2022/03/29 12:06:29;;;;;;;;;;;;;;;4.51;86.84;98860.25;4935683;29;19926;-85
2022/03/29 12:08:58;;;;;;;;;;;;;;;4.55;86.91;98854.00;4936161;29;19929;-83
2022/03/29 12:11:28;;;;;;;;;;;;;;;4.57;86.72;98858.34;4937487;29;19931;-84
2022/03/29 12:14:12;;;;;;;;;;;;;;;4.60;86.85;98858.25;4935405;29;20330;-84
2022/03/29 12:16:51;;;;;;;;;;;;;;;4.60;87.09;98847.75;4935946;29;20357;-92
2022/03/29 12:19:20;;;;;;;;;;;;;;;4.63;87.10;98847.66;4935339;29;19930;-84
2022/03/29 12:21:48;;;;;;;;;;;;;;;4.67;87.15;98838.75;4933857;29;19931;-84
2022/03/29 12:24:13;;;;;;;;;;;;;;;4.68;87.30;98830.81;4935272;29;20382;-83
2022/03/29 12:26:42;;;;;;;;;;;;;;;4.68;87.38;98835.22;4936239;29;19930;-89
2022/03/29 12:29:09;;;;;;;;;;;;;;;4.69;87.45;98834.28;4935481;29;19951;-83
2022/03/29 12:31:36;;;;;;;;;;;;;;;4.77;87.50;98834.03;4935583;29;20029;-87
2022/03/29 12:34:01;;;;;;;;;;;;;;;4.81;87.69;98833.88;4935547;29;19945;-84
2022/03/29 12:36:27;;;;;;;;;;;;;;;4.79;87.69;98827.84;4934236;29;20378;-90
2022/03/29 12:39:00;;;;;;;;;;;;;;;4.79;87.78;98816.50;4936851;29;19930;-84
2022/03/29 12:41:32;;;;;;;;;;;;;;;4.81;87.93;98820.75;4935970;29;19954;-83
2022/03/29 12:43:57;;;;;;;;;;;;;;;4.81;88.12;98815.50;4935989;29;19929;-84
2022/03/29 12:46:22;;;;;;;;;;;;;;;4.83;87.81;98811.06;4934875;29;20005;-83
2022/03/29 12:48:48;;;;;;;;;;;;;;;4.83;87.89;98805.81;4934573;29;19930;-83
2022/03/29 12:51:14;;;;;;;;;;;;;;;4.91;88.14;98802.91;4934919;29;19934;-82
2022/03/29 12:53:40;;;;;;;;;;;;;;;5.04;88.75;98800.72;4928207;29;20013;-87
2022/03/29 12:56:09;;;;;;;;;;;;;;;5.12;89.65;98798.66;4935516;29;19923;-83
2022/03/29 12:58:36;;;;;;;;;;;;;;;5.16;90.46;98799.44;4935615;29;19927;-87
2022/03/29 13:01:02;;;;;;;;;;;;;;;5.14;91.13;98796.84;4927880;29;20283;-83
2022/03/29 13:03:27;;;;;;;;;;;;;;;5.09;91.61;98794.38;4934371;29;20510;-86
2022/03/29 13:05:53;;;;;;;;;;;;;;;5.07;91.91;98797.97;4933319;29;20005;-82
2022/03/29 13:08:19;;;;;;;;;;;;;;;4.97;92.08;98783.47;4935074;29;19922;-82
2022/03/29 13:10:46;;;;;;;;;;;;;;;4.86;92.01;98787.31;4935709;29;20366;-85
2022/03/29 13:13:18;;;;;;;;;;;;;;;4.73;91.78;98786.06;4934590;29;19934;-83
2022/03/29 13:15:46;;;;;;;;;;;;;;;4.55;91.61;98777.91;4935304;29;20298;-83
2022/03/29 13:18:17;;;;;;;;;;;;;;;4.42;91.88;98773.13;4935348;29;19929;-85
2022/03/29 13:20:43;;;;;;;;;;;;;;;4.32;93.19;98776.09;4934733;29;20382;-88
2022/03/29 13:23:08;;;;;;;;;;;;;;;4.37;94.61;98778.53;4934616;29;19933;-83
2022/03/29 13:25:34;;;;;;;;;;;;;;;4.42;97.07;98773.13;4934252;29;20009;-88
2022/03/29 13:28:00;;;;;;;;;;;;;;;4.64;100.00;98771.50;4934259;29;19927;-87
2022/03/29 13:30:25;;;;;;;;;;;;;;;4.86;100.00;98765.47;4934594;29;20405;-92
2022/03/29 13:32:52;;;;;;;;;;;;;;;5.22;100.00;98762.44;4935430;29;19930;-79
2022/03/29 13:35:18;;;;;;;;;;;;;;;5.87;100.00;98760.81;4933984;29;19970;-92
2022/03/29 13:37:43;;;;;;;;;;;;;;;5.64;100.00;98759.91;4935091;29;19981;-92
2022/03/29 13:40:10;;;;;;;;;;;;;;;5.60;100.00;98755.72;4933979;29;19978;-83
2022/03/29 13:42:36;;;;;;;;;;;;;;;5.61;100.00;98743.41;4934342;29;19925;-83
2022/03/29 13:45:01;;;;;;;;;;;;;;;5.62;100.00;98759.13;4934349;29;20025;-84
2022/03/29 13:47:26;;;;;;;;;;;;;;;5.62;100.00;98751.25;4934164;29;19927;-84
2022/03/29 13:49:52;;;;;;;;;;;;;;;5.68;100.00;98749.28;4933547;29;20017;-82
2022/03/29 13:52:17;;;;;;;;;;;;;;;5.69;100.00;98743.13;4933687;29;20222;-85
2022/03/29 13:54:42;;;;;;;;;;;;;;;5.73;100.00;98742.09;4935055;29;19930;-90
2022/03/29 13:57:07;;;;;;;;;;;;;;;5.77;100.00;98744.50;4935528;29;20384;-91
2022/03/29 13:59:33;;;;;;;;;;;;;;;5.79;100.00;98741.81;4934724;29;19922;-91
2022/03/29 14:01:59;;;;;;;;;;;;;;;5.80;100.00;98738.28;4933547;29;19922;-85
2022/03/29 14:04:24;;;;;;;;;;;;;;;5.86;100.00;98735.41;4934477;29;19946;-87
2022/03/29 14:06:50;;;;;;;;;;;;;;;5.89;100.00;98743.19;4933078;29;20362;-85
2022/03/29 14:09:15;;;;;;;;;;;;;;;5.93;100.00;98734.25;4934639;29;19951;-87
2022/03/29 14:11:40;;;;;;;;;;;;;;;5.92;100.00;98729.91;4935213;29;19923;-93
2022/03/29 14:14:05;;;;;;;;;;;;;;;5.95;100.00;98727.16;4934639;29;19926;-91
2022/03/29 14:16:31;;;;;;;;;;;;;;;5.97;100.00;98724.50;4934229;29;20802;-91
2022/03/29 14:18:56;;;;;;;;;;;;;;;5.95;100.00;98727.16;4935287;29;19923;-94
2022/03/29 14:21:22;;;;;;;;;;;;;;;5.97;100.00;98720.09;4934091;29;19923;-92
2022/03/29 14:23:47;;;;;;;;;;;;;;;6.06;100.00;98718.00;4935458;29;20322;-93
2022/03/29 14:26:12;;;;;;;;;;;;;;;6.06;100.00;98715.38;4933883;29;20013;-84
2022/03/29 14:28:37;;;;;;;;;;;;;;;4.80;100.00;98719.28;4934395;29;20271;-89
2022/03/29 14:31:04;;;;;;;;;;;;;;;3.59;100.00;98711.16;4933443;29;19933;-86
2022/03/29 14:33:30;;;;;;;;;;;;;;;3.21;100.00;98702.75;4932624;29;20006;-84
2022/03/29 14:35:55;;;;;;;;;;;;;;;3.00;100.00;98705.09;4931652;29;19999;-90
2022/03/29 14:38:20;;;;;;;;;;;;;;;2.76;100.00;98703.16;4932872;29;19931;-90
2022/03/29 14:40:46;;;;;;;;;;;;;;;2.74;100.00;98700.59;4934602;29;19929;-83
2022/03/29 14:43:14;;;;;;;;;;;;;;;2.46;99.69;98703.13;4934750;29;19923;-84
2022/03/29 14:45:39;;;;;;;;;;;;;;;2.47;99.07;98704.84;4931710;29;19923;-84
2022/03/29 14:48:04;;;;;;;;;;;;;;;2.39;98.23;98697.19;4926896;29;19996;-90
2022/03/29 14:50:30;;;;;;;;;;;;;;;2.40;97.42;98698.06;4932468;29;20009;-83
2022/03/29 14:52:55;;;;;;;;;;;;;;;2.20;96.71;98696.81;4928698;29;19927;-84
2022/03/29 14:55:24;;;;;;;;;;;;;;;2.13;96.42;98687.44;4934442;29;19929;-89
2022/03/29 14:57:49;;;;;;;;;;;;;;;1.91;95.96;98692.34;4932240;29;19925;-83
2022/03/29 15:00:15;;;;;;;;;;;;;;;1.93;95.56;98683.59;4932733;29;19923;-88
2022/03/29 15:02:40;;;;;;;;;;;;;;;1.88;95.24;98677.59;4931565;29;19958;-83
2022/03/29 15:05:06;;;;;;;;;;;;;;;1.78;94.41;98678.75;4932453;29;20294;-84
2022/03/29 15:07:31;;;;;;;;;;;;;;;1.63;93.83;98682.59;4930866;29;20359;-84
2022/03/29 15:09:56;;;;;;;;;;;;;;;1.69;93.28;98676.34;4931744;29;19946;-84
2022/03/29 15:12:22;;;;;;;;;;;;;;;1.58;92.33;98676.59;4934070;29;19982;-83
2022/03/29 15:14:47;;;;;;;;;;;;;;;1.51;92.37;98667.22;4934418;29;19992;-83
2022/03/29 15:17:12;;;;;;;;;;;;;;;1.44;91.68;98662.13;4933245;29;19986;-83
2022/03/29 15:19:38;;;;;;;;;;;;;;;1.35;91.12;98664.09;4933444;29;19918;-87
2022/03/29 15:22:04;;;;;;;;;;;;;;;1.22;91.15;98661.78;4933271;29;19930;-90
2022/03/29 15:24:30;;;;;;;;;;;;;;;1.11;90.94;98658.56;4933745;29;19918;-86
2022/03/29 15:26:56;;;;;;;;;;;;;;;1.18;90.51;98656.66;4933347;29;19934;-87
2022/03/29 15:29:21;;;;;;;;;;;;;;;1.13;89.90;98646.31;4934233;29;19919;-87
2022/03/29 15:31:46;;;;;;;;;;;;;;;1.18;90.91;98647.09;4931874;29;19923;-83
2022/03/29 15:34:12;;;;;;;;;;;;;;;1.39;92.94;98648.34;4932265;29;19971;-84
2022/03/29 15:36:40;;;;;;;;;;;;;;;1.58;96.07;98646.16;4927147;29;20283;-90
2022/03/29 15:39:06;;;;;;;;;;;;;;;1.81;98.81;98650.78;4938087;29;19929;-85
2022/03/29 15:41:31;;;;;;;;;;;;;;;1.91;100.00;98640.09;4935468;29;19923;-92
2022/03/29 15:43:57;;;;;;;;;;;;;;;2.09;100.00;98636.13;4929395;29;19937;-84
2022/03/29 15:46:23;;;;;;;;;;;;;;;2.03;100.00;98629.34;4935638;29;20034;-89
2022/03/29 15:48:48;;;;;;;;;;;;;;;2.27;100.00;98627.81;4937254;29;20462;-85
2022/03/29 15:51:13;;;;;;;;;;;;;;;2.98;100.00;98627.50;4936537;29;20001;-75
2022/03/29 15:53:39;;;;;;;;;;;;;;;3.47;100.00;98619.88;4934847;29;19922;-89
2022/03/29 15:56:04;;;;;;;;;;;;;;;2.80;100.00;98616.69;4936389;29;19924;-86
2022/03/29 15:58:30;;;;;;;;;;;;;;;2.65;100.00;98618.03;4936176;29;20290;-91
2022/03/29 16:00:55;;;;;;;;;;;;;;;2.66;100.00;98622.31;4937501;29;19930;-92
2022/03/29 16:03:20;;;;;;;;;;;;;;;2.59;100.00;98609.50;4936766;29;19927;-89
2022/03/29 16:05:46;;;;;;;;;;;;;;;2.62;100.00;98612.03;4936022;29;19930;-85
2022/03/29 16:08:11;;;;;;;;;;;;;;;2.55;100.00;98606.09;4937550;29;19919;-86
2022/03/29 16:10:36;;;;;;;;;;;;;;;2.58;100.00;98603.41;4937628;29;20330;-91
2022/03/29 16:13:02;;;;;;;;;;;;;;;2.54;100.00;98600.03;4937721;29;19922;-87
2022/03/29 16:15:27;;;;;;;;;;;;;;;2.56;100.00;98592.13;4937343;29;19922;-87
2022/03/29 16:17:52;;;;;;;;;;;;;;;2.57;100.00;98586.00;4937550;29;20370;-85
2022/03/29 16:20:19;;;;;;;;;;;;;;;2.56;100.00;98576.44;4935324;29;19922;-89
2022/03/29 16:22:45;;;;;;;;;;;;;;;2.58;100.00;98576.41;4937533;29;20293;-86
2022/03/29 16:25:12;;;;;;;;;;;;;;;2.55;100.00;98579.94;4936138;29;19919;-90
2022/03/29 16:27:38;;;;;;;;;;;;;;;2.59;100.00;98581.59;4935951;29;19973;-91
2022/03/29 16:30:04;;;;;;;;;;;;;;;2.59;100.00;98578.13;4935892;29;19919;-86
2022/03/29 16:32:29;;;;;;;;;;;;;;;2.52;100.00;98570.44;4937252;29;19919;-85
2022/03/29 16:34:55;;;;;;;;;;;;;;;2.56;100.00;98568.59;4935416;29;19926;-85
2022/03/29 16:37:21;;;;;;;;;;;;;;;2.55;100.00;98559.03;4934433;29;19929;-88
2022/03/29 16:39:46;;;;;;;;;;;;;;;2.57;100.00;98565.09;4935686;29;19919;-90
2022/03/29 16:42:12;;;;;;;;;;;;;;;2.56;100.00;98559.91;4936893;29;19923;-85
2022/03/29 16:44:37;;;;;;;;;;;;;;;2.62;100.00;98557.09;4935625;29;19979;-86
2022/03/29 16:47:06;;;;;;;;;;;;;;;2.64;100.00;98553.53;4935525;29;19969;-89
2022/03/29 16:49:32;;;;;;;;;;;;;;;2.61;100.00;98558.00;4942993;28;19923;-89
2022/03/29 16:51:57;;;;;;;;;;;;;;;2.56;100.00;98555.53;4935377;29;19922;-86
2022/03/29 16:54:23;;;;;;;;;;;;;;;2.60;100.00;98556.28;4936795;29;19919;-86
2022/03/29 16:56:48;;;;;;;;;;;;;;;2.59;100.00;98554.59;4936587;29;19926;-88
2022/03/29 16:59:13;;;;;;;;;;;;;;;2.62;100.00;98550.09;4936833;29;19926;-93
2022/03/29 17:01:39;;;;;;;;;;;;;;;2.63;100.00;98559.69;4931116;29;20446;-87
2022/03/29 17:04:05;;;;;;;;;;;;;;;2.65;100.00;98552.63;4935184;29;19925;-86
2022/03/29 17:06:30;;;;;;;;;;;;;;;2.70;100.00;98558.56;4934307;29;19919;-85
2022/03/29 17:08:55;;;;;;;;;;;;;;;2.68;100.00;98552.53;4935395;29;19922;-85
2022/03/29 17:11:21;;;;;;;;;;;;;;;2.72;100.00;98556.75;4936808;29;19934;-91
2022/03/29 17:13:46;;;;;;;;;;;;;;;2.72;100.00;98559.38;4935210;29;19950;-85
2022/03/29 17:16:11;;;;;;;;;;;;;;;2.72;99.83;98555.91;4936390;29;20493;-87
2022/03/29 17:18:38;;;;;;;;;;;;;;;2.68;99.26;98555.16;4934888;29;19919;-84
2022/03/29 17:21:04;;;;;;;;;;;;;;;2.70;98.89;98555.97;4933708;29;20350;-85
2022/03/29 17:23:30;;;;;;;;;;;;;;;2.73;98.42;98555.88;4935941;29;19926;-89
2022/03/29 17:25:56;;;;;;;;;;;;;;;2.74;98.03;98559.31;4936081;29;19918;-86
2022/03/29 17:28:22;;;;;;;;;;;;;;;2.78;97.58;98549.66;4934781;29;20263;-85
2022/03/29 17:30:47;;;;;;;;;;;;;;;2.74;97.23;98556.72;4935975;29;19919;-85
2022/03/29 17:33:13;;;;;;;;;;;;;;;2.78;96.95;98554.88;4936162;29;19929;-86
2022/03/29 17:35:38;;;;;;;;;;;;;;;2.75;96.58;98550.59;4934644;29;20441;-89
2022/03/29 17:38:03;;;;;;;;;;;;;;;2.78;96.36;98552.25;4934637;29;19923;-90
2022/03/29 17:40:29;;;;;;;;;;;;;;;2.78;96.07;98557.50;4934529;29;19919;-84
2022/03/29 17:42:54;;;;;;;;;;;;;;;2.80;95.78;98547.84;4935954;29;20009;-86
2022/03/29 17:45:20;;;;;;;;;;;;;;;2.80;95.55;98563.53;4932042;29;19919;-91
2022/03/29 17:47:45;;;;;;;;;;;;;;;2.79;95.34;98557.41;4932958;29;19927;-90
2022/03/29 17:50:11;;;;;;;;;;;;;;;2.83;95.16;98552.97;4934294;29;19919;-90
2022/03/29 17:52:36;;;;;;;;;;;;;;;2.84;94.95;98554.66;4934260;29;20390;-86
2022/03/29 17:55:06;;;;;;;;;;;;;;;2.83;94.73;98555.59;4934267;29;20013;-85
2022/03/29 17:57:31;;;;;;;;;;;;;;;2.82;94.53;98561.72;4935327;29;19982;-90
2022/03/29 17:59:56;;;;;;;;;;;;;;;2.86;94.25;98555.50;4935234;29;20014;-85
2022/03/29 18:02:27;;;;;;;;;;;;;;;2.82;94.26;98546.88;4935038;29;19923;-86
2022/03/29 18:04:53;;;;;;;;;;;;;;;2.82;94.01;98552.09;4933976;29;20078;-89
2022/03/29 18:07:19;;;;;;;;;;;;;;;2.88;93.87;98556.28;4916548;29;19982;-89
2022/03/29 18:09:44;;;;;;;;;;;;;;;2.86;93.56;98556.34;4934028;29;19922;-91
2022/03/29 18:12:09;;;;;;;;;;;;;;;2.86;93.29;98548.50;4933165;29;20284;-88
2022/03/29 18:14:35;;;;;;;;;;;;;;;2.85;93.08;98546.78;4933738;29;19922;-91
2022/03/29 18:17:00;;;;;;;;;;;;;;;2.88;92.87;98551.91;4933814;29;20037;-88
2022/03/29 18:19:26;;;;;;;;;;;;;;;2.87;92.54;98544.09;4933322;29;19925;-86
2022/03/29 18:21:51;;;;;;;;;;;;;;;2.90;92.58;98554.47;4934696;29;19919;-92
2022/03/29 18:24:17;;;;;;;;;;;;;;;2.89;92.34;98553.63;4935040;29;19950;-86